createdAt,value
2023-01-29T00:00:12.732Z,100702.59
2023-01-29T00:02:39.703Z,100698.28
2023-01-29T00:05:25.573Z,100703.63
2023-01-29T00:07:53.408Z,100717.56
2023-01-29T00:10:19.976Z,100710.59
2023-01-29T00:12:46.533Z,100711.81
2023-01-29T00:15:13.141Z,100702.81
2023-01-29T00:17:39.695Z,100706.69
2023-01-29T00:20:06.745Z,100697.06
2023-01-29T00:22:33.325Z,100706.06
2023-01-29T00:24:59.940Z,100699.09
2023-01-29T00:27:26.519Z,100695.84
2023-01-29T00:30:09.190Z,100700.75
2023-01-29T00:32:36.328Z,100704.44
2023-01-29T00:35:03.715Z,100702.78
2023-01-29T00:37:30.719Z,100704.84
2023-01-29T00:39:57.830Z,100712.22
2023-01-29T00:42:43.422Z,100703.22
2023-01-29T00:45:11.179Z,100704.25
2023-01-29T00:47:37.882Z,100703.22
2023-01-29T00:50:08.059Z,100698.72
2023-01-29T00:52:36.469Z,100704.25
2023-01-29T00:55:05.918Z,100708.94
2023-01-29T00:57:34.328Z,100712.03
2023-01-29T01:00:01.685Z,100713.47
2023-01-29T01:02:47.002Z,100713.47
2023-01-29T01:05:18.265Z,100711.41
2023-01-29T01:07:53.286Z,100712.19
2023-01-29T01:10:31.356Z,100714.25
2023-01-29T01:12:59.319Z,100712.19
2023-01-29T01:15:29.513Z,100711.19
2023-01-29T01:17:58.584Z,100718.97
2023-01-29T01:20:27.838Z,100720.00
2023-01-29T01:22:55.064Z,100711.81
2023-01-29T01:25:23.899Z,100710.16
2023-01-29T01:30:26.139Z,100712.00
2023-01-29T01:32:53.182Z,100711.19
2023-01-29T01:35:19.954Z,100701.97
2023-01-29T01:37:46.559Z,100716.28
2023-01-29T01:40:22.137Z,100709.56
2023-01-29T01:42:56.984Z,100705.25
2023-01-29T01:45:35.421Z,100696.44
2023-01-29T01:48:19.443Z,100699.09
2023-01-29T01:50:52.368Z,100695.81
2023-01-29T01:53:35.086Z,100706.47
2023-01-29T01:56:04.904Z,100697.25
2023-01-29T01:58:36.472Z,100706.25
2023-01-29T02:01:05.992Z,100687.63
2023-01-29T02:03:56.692Z,100686.59
2023-01-29T02:06:41.884Z,100699.28
2023-01-29T02:09:36.001Z,100692.13
2023-01-29T02:12:08.661Z,100687.63
2023-01-29T02:14:40.878Z,100681.91
2023-01-29T02:17:10.377Z,100681.91
2023-01-29T02:19:39.960Z,100677.38
2023-01-29T02:22:20.881Z,100670.41
2023-01-29T02:25:14.952Z,100670.81
2023-01-29T02:28:32.908Z,100675.94
2023-01-29T02:31:24.293Z,100682.06
2023-01-29T02:34:08.631Z,100683.50
2023-01-29T02:37:00.031Z,100676.13
2023-01-29T02:39:38.663Z,100666.28
2023-01-29T02:42:17.616Z,100674.50
2023-01-29T02:44:52.353Z,100677.34
2023-01-29T02:47:40.032Z,100683.09
2023-01-29T02:50:06.602Z,100675.72
2023-01-29T02:52:39.555Z,100683.09
2023-01-29T02:55:15.774Z,100680.19
2023-01-29T02:57:46.362Z,100686.75
2023-01-29T03:00:16.101Z,100687.16
2023-01-29T03:02:52.940Z,100687.56
2023-01-29T03:05:28.853Z,100701.88
2023-01-29T03:08:02.845Z,100697.56
2023-01-29T03:10:54.595Z,100691.03
2023-01-29T03:13:40.818Z,100678.94
2023-01-29T03:16:19.228Z,100679.78
2023-01-29T03:19:09.218Z,100686.31
2023-01-29T03:22:14.431Z,100674.88
2023-01-29T03:25:07.439Z,100678.34
2023-01-29T03:28:04.513Z,100684.66
2023-01-29T03:30:53.768Z,100689.81
2023-01-29T03:33:23.988Z,100684.66
2023-01-29T03:36:00.886Z,100675.88
2023-01-29T03:38:32.164Z,100681.81
2023-01-29T03:41:07.586Z,100678.56
2023-01-29T03:43:50.879Z,100676.47
2023-01-29T03:46:31.481Z,100671.75
2023-01-29T03:48:58.024Z,100673.19
2023-01-29T03:51:36.420Z,100682.22
2023-01-29T03:54:35.549Z,100686.28
2023-01-29T03:57:16.152Z,100678.94
2023-01-29T04:00:19.137Z,100678.09
2023-01-29T04:03:13.001Z,100682.63
2023-01-29T04:05:47.645Z,100704.69
2023-01-29T04:08:21.403Z,100700.19
2023-01-29T04:10:51.208Z,100695.69
2023-01-29T04:13:19.071Z,100681.78
2023-01-29T04:15:50.794Z,100681.53
2023-01-29T04:18:17.397Z,100690.34
2023-01-29T04:20:44.550Z,100702.41
2023-01-29T04:23:26.050Z,100694.44
2023-01-29T04:26:21.856Z,100689.94
2023-01-29T04:29:10.095Z,100684.44
2023-01-29T04:32:02.032Z,100678.47
2023-01-29T04:34:42.179Z,100684.19
2023-01-29T04:37:17.087Z,100680.88
2023-01-29T04:39:55.828Z,100682.13
2023-01-29T04:42:25.368Z,100688.25
2023-01-29T04:45:18.097Z,100701.28
2023-01-29T04:47:54.357Z,100686.75
2023-01-29T04:50:38.058Z,100698.41
2023-01-29T04:53:09.315Z,100684.94
2023-01-29T04:56:06.430Z,100696.94
2023-01-29T04:58:39.735Z,100679.56
2023-01-29T05:01:11.201Z,100679.97
2023-01-29T05:03:41.098Z,100682.38
2023-01-29T05:06:10.048Z,100673.38
2023-01-29T05:08:39.166Z,100682.94
2023-01-29T05:11:06.344Z,100678.22
2023-01-29T05:13:39.255Z,100688.22
2023-01-29T05:16:21.185Z,100682.09
2023-01-29T05:18:48.355Z,100688.03
2023-01-29T05:21:14.948Z,100687.00
2023-01-29T05:23:57.350Z,100681.69
2023-01-29T05:26:43.016Z,100685.16
2023-01-29T05:29:12.279Z,100693.56
2023-01-29T05:31:38.912Z,100687.25
2023-01-29T05:34:05.502Z,100678.25
2023-01-29T05:36:32.073Z,100679.28
2023-01-29T05:38:58.662Z,100668.63
2023-01-29T05:41:25.230Z,100680.72
2023-01-29T05:43:51.835Z,100675.59
2023-01-29T05:46:18.944Z,100662.31
2023-01-29T05:48:45.653Z,100664.97
2023-01-29T05:51:12.353Z,100658.19
2023-01-29T05:53:38.893Z,100678.25
2023-01-29T05:56:05.853Z,100672.53
2023-01-29T05:58:33.418Z,100673.41
2023-01-29T06:01:09.364Z,100668.50
2023-01-29T06:03:36.011Z,100660.16
2023-01-29T06:06:02.836Z,100662.13
2023-01-29T06:08:29.406Z,100665.41
2023-01-29T06:10:56.005Z,100662.81
2023-01-29T06:13:23.696Z,100663.03
2023-01-29T06:15:50.585Z,100675.22
2023-01-29T06:18:17.455Z,100662.50
2023-01-29T06:20:44.163Z,100665.06
2023-01-29T06:23:10.742Z,100688.88
2023-01-29T06:25:37.441Z,100683.53
2023-01-29T06:28:04.248Z,100690.03
2023-01-29T06:30:31.914Z,100690.41
2023-01-29T06:32:59.478Z,100700.41
2023-01-29T06:35:26.197Z,100696.66
2023-01-29T06:37:52.791Z,100693.13
2023-01-29T06:40:20.131Z,100691.22
2023-01-29T06:42:46.744Z,100695.47
2023-01-29T06:45:14.079Z,100700.34
2023-01-29T06:47:40.636Z,100688.50
2023-01-29T06:50:07.380Z,100682.31
2023-01-29T06:52:33.966Z,100690.88
2023-01-29T06:55:00.558Z,100688.44
2023-01-29T06:57:30.104Z,100686.78
2023-01-29T06:59:56.727Z,100685.16
2023-01-29T07:02:23.486Z,100692.09
2023-01-29T07:04:50.137Z,100698.22
2023-01-29T07:07:16.744Z,100706.41
2023-01-29T07:09:43.751Z,100700.53
2023-01-29T07:12:11.106Z,100700.75
2023-01-29T07:14:37.744Z,100703.03
2023-01-29T07:17:04.371Z,100699.56
2023-01-29T07:19:30.954Z,100706.69
2023-01-29T07:21:57.638Z,100698.72
2023-01-29T07:24:24.942Z,100693.41
2023-01-29T07:26:51.681Z,100695.03
2023-01-29T07:29:18.376Z,100700.34
2023-01-29T07:31:45.281Z,100693.22
2023-01-29T07:34:11.904Z,100691.59
2023-01-29T07:36:38.501Z,100696.69
2023-01-29T07:39:05.153Z,100679.72
2023-01-29T07:41:31.761Z,100690.16
2023-01-29T07:43:58.373Z,100691.63
2023-01-29T07:46:25.038Z,100701.25
2023-01-29T07:48:51.631Z,100691.84
2023-01-29T07:51:18.660Z,100688.78
2023-01-29T07:53:45.292Z,100696.59
2023-01-29T07:56:11.898Z,100706.19
2023-01-29T07:58:38.581Z,100708.84
2023-01-29T08:01:07.513Z,100716.84
2023-01-29T08:03:34.152Z,100723.38
2023-01-29T08:06:00.876Z,100723.78
2023-01-29T08:08:27.458Z,100724.06
2023-01-29T08:10:54.019Z,100733.06
2023-01-29T08:13:20.611Z,100739.66
2023-01-29T08:15:47.278Z,100742.91
2023-01-29T08:18:14.528Z,100754.81
2023-01-29T08:20:41.228Z,100763.84
2023-01-29T08:23:13.013Z,100770.41
2023-01-29T08:25:39.731Z,100763.66
2023-01-29T08:28:06.639Z,100760.59
2023-01-29T08:30:34.409Z,100756.31
2023-01-29T08:33:01.640Z,100748.97
2023-01-29T08:35:28.250Z,100745.88
2023-01-29T08:38:01.838Z,100738.72
2023-01-29T08:40:31.958Z,100742.19
2023-01-29T08:43:05.566Z,100726.22
2023-01-29T08:45:35.833Z,100725.81
2023-01-29T08:48:02.876Z,100717.47
2023-01-29T08:50:34.495Z,100717.88
2023-01-29T08:53:03.551Z,100699.06
2023-01-29T08:55:30.352Z,100705.41
2023-01-29T08:57:59.845Z,100711.34
2023-01-29T09:00:26.668Z,100721.22
2023-01-29T09:02:53.253Z,100729.81
2023-01-29T09:05:20.345Z,100728.34
2023-01-29T09:07:47.148Z,100739.41
2023-01-29T09:10:13.900Z,100739.22
2023-01-29T09:12:40.581Z,100747.78
2023-01-29T09:15:07.864Z,100759.25
2023-01-29T09:17:34.640Z,100753.94
2023-01-29T09:20:01.220Z,100755.16
2023-01-29T09:22:28.534Z,100761.31
2023-01-29T09:24:55.184Z,100756.38
2023-01-29T09:27:21.848Z,100757.44
2023-01-29T09:29:48.493Z,100754.19
2023-01-29T09:32:16.843Z,100748.41
2023-01-29T09:34:46.204Z,100751.09
2023-01-29T09:37:12.840Z,100753.75
2023-01-29T09:39:39.406Z,100751.50
2023-01-29T09:42:09.088Z,100744.13
2023-01-29T09:45:06.114Z,100756.34
2023-01-29T09:47:35.933Z,100746.75
2023-01-29T09:50:15.547Z,100750.16
2023-01-29T09:53:23.246Z,100745.09
2023-01-29T09:55:56.246Z,100745.75
2023-01-29T09:58:25.970Z,100741.28
2023-01-29T10:01:23.309Z,100746.59
2023-01-29T10:04:19.250Z,100742.91
2023-01-29T10:07:04.516Z,100737.19
2023-01-29T10:09:41.196Z,100741.31
2023-01-29T10:12:32.512Z,100742.75
2023-01-29T10:15:17.717Z,100738.84
2023-01-29T10:18:04.969Z,100746.66
2023-01-29T10:20:42.961Z,100741.50
2023-01-29T10:23:12.298Z,100734.34
2023-01-29T10:25:41.877Z,100729.88
2023-01-29T10:28:50.273Z,100735.78
2023-01-29T10:31:23.500Z,100724.09
2023-01-29T10:34:03.463Z,100728.00
2023-01-29T10:36:50.380Z,100740.09
2023-01-29T10:39:20.603Z,100724.13
2023-01-29T10:41:47.108Z,100724.13
2023-01-29T10:44:29.197Z,100714.47
2023-01-29T10:47:04.869Z,100713.47
2023-01-29T10:49:52.899Z,100699.53
2023-01-29T10:52:31.601Z,100705.69
2023-01-29T10:55:17.072Z,100700.75
2023-01-29T10:57:56.572Z,100693.16
2023-01-29T11:00:27.414Z,100685.16
2023-01-29T11:02:54.274Z,100682.31
2023-01-29T11:05:55.008Z,100686.00
2023-01-29T11:08:25.108Z,100679.00
2023-01-29T11:11:07.466Z,100664.22
2023-01-29T11:13:40.568Z,100650.69
2023-01-29T11:16:09.486Z,100655.19
2023-01-29T11:18:50.686Z,100654.81
2023-01-29T11:21:17.503Z,100659.31
2023-01-29T11:23:44.251Z,100652.34
2023-01-29T11:26:19.300Z,100652.34
2023-01-29T11:28:48.317Z,100649.50
2023-01-29T11:31:35.212Z,100644.41
2023-01-29T11:34:16.825Z,100639.69
2023-01-29T11:36:45.004Z,100637.22
2023-01-29T11:39:21.578Z,100641.94
2023-01-29T11:41:52.849Z,100643.56
2023-01-29T11:44:31.408Z,100633.56
2023-01-29T11:47:11.714Z,100625.34
2023-01-29T11:49:41.477Z,100623.28
2023-01-29T11:52:10.338Z,100622.88
2023-01-29T11:54:52.045Z,100616.31
2023-01-29T11:57:26.364Z,100612.00
2023-01-29T11:59:55.267Z,100602.31
2023-01-29T12:02:35.727Z,100600.66
2023-01-29T12:05:06.871Z,100598.94
2023-01-29T12:07:34.645Z,100592.72
2023-01-29T12:10:01.349Z,100578.16
2023-01-29T12:12:29.970Z,100573.41
2023-01-29T12:15:04.975Z,100577.91
2023-01-29T12:17:38.045Z,100572.34
2023-01-29T12:20:20.279Z,100572.94
2023-01-29T12:23:31.205Z,100575.00
2023-01-29T12:26:12.896Z,100566.41
2023-01-29T12:29:01.744Z,100562.66
2023-01-29T12:31:53.664Z,100549.44
2023-01-29T12:34:46.306Z,100551.44
2023-01-29T12:37:45.722Z,100553.78
2023-01-29T12:40:17.741Z,100554.06
2023-01-29T12:42:56.286Z,100543.72
2023-01-29T12:45:26.031Z,100541.59
2023-01-29T12:47:57.513Z,100538.41
2023-01-29T12:50:28.860Z,100537.81
2023-01-29T12:53:18.688Z,100536.97
2023-01-29T12:55:48.950Z,100536.75
2023-01-29T12:58:25.401Z,100540.84
2023-01-29T13:00:57.194Z,100531.31
2023-01-29T13:03:45.737Z,100533.75
2023-01-29T13:06:18.100Z,100526.09
2023-01-29T13:08:53.862Z,100529.00
2023-01-29T13:11:26.680Z,100528.00
2023-01-29T13:13:59.658Z,100518.19
2023-01-29T13:16:30.819Z,100505.66
2023-01-29T13:19:00.759Z,100509.16
2023-01-29T13:21:31.468Z,100509.16
2023-01-29T13:24:03.483Z,100507.25
2023-01-29T13:26:31.889Z,100507.81
2023-01-29T13:28:58.887Z,100504.47
2023-01-29T13:31:34.414Z,100500.34
2023-01-29T13:34:14.245Z,100505.34
2023-01-29T13:36:50.208Z,100496.50
2023-01-29T13:39:44.304Z,100495.75
2023-01-29T13:42:19.156Z,100489.88
2023-01-29T13:44:51.272Z,100488.91
2023-01-29T13:47:26.681Z,100492.38
2023-01-29T13:50:01.652Z,100493.66
2023-01-29T13:52:40.853Z,100493.66
2023-01-29T13:55:09.433Z,100484.69
2023-01-29T13:57:45.018Z,100480.56
2023-01-29T14:00:34.921Z,100484.59
2023-01-29T14:03:01.429Z,100472.81
2023-01-29T14:05:30.991Z,100467.72
2023-01-29T14:07:59.271Z,100466.34
2023-01-29T14:10:30.855Z,100473.72
2023-01-29T14:13:03.318Z,100478.03
2023-01-29T14:15:40.138Z,100470.06
2023-01-29T14:18:06.803Z,100469.56
2023-01-29T14:20:48.661Z,100474.00
2023-01-29T14:23:41.615Z,100482.41
2023-01-29T14:26:45.213Z,100477.91
2023-01-29T14:29:34.339Z,100483.75
2023-01-29T14:32:19.314Z,100463.41
2023-01-29T14:34:49.791Z,100467.78
2023-01-29T14:37:16.312Z,100469.53
2023-01-29T14:39:43.047Z,100473.09
2023-01-29T14:42:37.657Z,100457.88
2023-01-29T14:45:21.924Z,100465.03
2023-01-29T14:47:48.474Z,100461.88
2023-01-29T14:50:33.298Z,100463.25
2023-01-29T14:53:19.764Z,100456.75
2023-01-29T14:56:03.278Z,100456.84
2023-01-29T14:58:46.942Z,100452.81
2023-01-29T15:01:37.329Z,100460.66
2023-01-29T15:04:34.870Z,100453.88
2023-01-29T15:07:12.492Z,100448.97
2023-01-29T15:09:55.624Z,100458.00
2023-01-29T15:12:25.631Z,100460.22
2023-01-29T15:15:10.615Z,100452.50
2023-01-29T15:17:49.699Z,100463.66
2023-01-29T15:20:48.599Z,100459.22
2023-01-29T15:23:28.681Z,100446.09
2023-01-29T15:25:58.995Z,100451.00
2023-01-29T15:28:28.899Z,100451.81
2023-01-29T15:30:57.349Z,100447.28
2023-01-29T15:33:24.197Z,100446.09
2023-01-29T15:36:08.716Z,100439.56
2023-01-29T15:38:36.184Z,100440.56
2023-01-29T15:41:16.423Z,100441.97
2023-01-29T15:43:56.126Z,100438.25
2023-01-29T15:46:34.389Z,100429.22
2023-01-29T15:49:07.009Z,100433.75
2023-01-29T15:51:34.099Z,100443.59
2023-01-29T15:54:03.494Z,100424.13
2023-01-29T15:56:51.293Z,100427.88
2023-01-29T15:59:22.112Z,100435.25
2023-01-29T16:01:48.772Z,100429.75
2023-01-29T16:04:21.068Z,100419.13
2023-01-29T16:06:48.700Z,100424.06
2023-01-29T16:09:19.687Z,100433.75
2023-01-29T16:11:47.711Z,100424.97
2023-01-29T16:14:17.645Z,100427.44
2023-01-29T16:16:45.238Z,100425.63
2023-01-29T16:19:22.473Z,100423.22
2023-01-29T16:22:06.346Z,100426.28
2023-01-29T16:24:36.563Z,100432.03
2023-01-29T16:27:12.598Z,100436.13
2023-01-29T16:29:39.504Z,100441.47
2023-01-29T16:32:06.994Z,100450.09
2023-01-29T16:34:37.802Z,100434.94
2023-01-29T16:37:07.842Z,100439.28
2023-01-29T16:39:44.440Z,100437.66
2023-01-29T16:42:12.329Z,100431.09
2023-01-29T16:44:40.215Z,100444.00
2023-01-29T16:47:12.984Z,100447.50
2023-01-29T16:49:39.653Z,100449.72
2023-01-29T16:52:24.782Z,100451.59
2023-01-29T16:54:52.133Z,100452.63
2023-01-29T16:57:26.003Z,100454.03
2023-01-29T16:59:56.009Z,100450.56
2023-01-29T17:02:25.496Z,100453.81
2023-01-29T17:04:55.878Z,100451.38
2023-01-29T17:07:23.618Z,100456.28
2023-01-29T17:09:56.286Z,100461.22
2023-01-29T17:12:26.439Z,100464.66
2023-01-29T17:15:01.408Z,100466.94
2023-01-29T17:17:33.721Z,100467.34
2023-01-29T17:20:14.133Z,100470.38
2023-01-29T17:22:40.982Z,100473.88
2023-01-29T17:25:08.098Z,100473.03
2023-01-29T17:27:34.664Z,100469.75
2023-01-29T17:30:01.359Z,100469.97
2023-01-29T17:32:45.173Z,100480.00
2023-01-29T17:35:15.933Z,100476.72
2023-01-29T17:37:43.641Z,100477.09
2023-01-29T17:40:42.401Z,100477.09
2023-01-29T17:43:11.805Z,100477.50
2023-01-29T17:45:39.571Z,100478.72
2023-01-29T17:48:14.466Z,100481.81
2023-01-29T17:50:48.332Z,100475.69
2023-01-29T17:53:16.086Z,100469.78
2023-01-29T17:55:43.333Z,100482.06
2023-01-29T17:58:28.111Z,100478.38
2023-01-29T18:00:55.297Z,100480.63
2023-01-29T18:03:23.023Z,100473.47
2023-01-29T18:05:50.287Z,100481.25
2023-01-29T18:08:17.019Z,100480.03
2023-01-29T18:10:44.632Z,100481.66
2023-01-29T18:13:11.434Z,100481.66
2023-01-29T18:15:38.176Z,100477.56
2023-01-29T18:18:05.922Z,100484.72
2023-01-29T18:20:36.723Z,100481.22
2023-01-29T18:23:04.526Z,100476.72
2023-01-29T18:25:31.602Z,100480.00
2023-01-29T18:27:58.148Z,100479.56
2023-01-29T18:30:24.941Z,100486.09
2023-01-29T18:32:51.852Z,100480.38
2023-01-29T18:35:18.689Z,100479.16
2023-01-29T18:37:45.764Z,100484.03
2023-01-29T18:40:13.837Z,100479.13
2023-01-29T18:42:40.809Z,100478.91
2023-01-29T18:45:08.177Z,100475.44
2023-01-29T18:47:34.772Z,100482.81
2023-01-29T18:50:01.374Z,100491.44
2023-01-29T18:52:27.953Z,100489.19
2023-01-29T18:54:54.549Z,100494.28
2023-01-29T18:58:29.394Z,100486.91
2023-01-29T19:00:09.446Z,100483.81
2023-01-29T19:02:36.162Z,100489.56
2023-01-29T19:05:02.749Z,100489.97
2023-01-29T19:07:29.347Z,100493.06
2023-01-29T19:09:56.143Z,100494.28
2023-01-29T19:12:23.656Z,100487.75
2023-01-29T19:14:50.246Z,100484.88
2023-01-29T19:17:17.222Z,100489.38
2023-01-29T19:19:43.814Z,100476.66
2023-01-29T19:22:10.393Z,100481.56
2023-01-29T19:24:39.072Z,100479.94
2023-01-29T19:27:06.717Z,100479.94
2023-01-29T19:29:33.496Z,100472.19
2023-01-29T19:32:00.174Z,100483.03
2023-01-29T19:34:26.989Z,100482.00
2023-01-29T19:36:53.653Z,100471.78
2023-01-29T19:39:20.479Z,100472.63
2023-01-29T19:41:47.068Z,100469.78
2023-01-29T19:44:13.695Z,100471.81
2023-01-29T19:46:40.300Z,100461.19
2023-01-29T19:49:07.238Z,100465.28
2023-01-29T19:51:33.875Z,100466.91
2023-01-29T19:54:00.512Z,100461.97
2023-01-29T19:56:27.133Z,100463.19
2023-01-29T19:58:57.485Z,100448.47
2023-01-29T20:01:24.947Z,100457.25
2023-01-29T20:03:52.065Z,100452.94
2023-01-29T20:06:22.305Z,100453.75
2023-01-29T20:08:49.099Z,100439.41
2023-01-29T20:11:17.564Z,100445.16
2023-01-29T20:13:46.936Z,100447.63
2023-01-29T20:16:13.628Z,100441.09
2023-01-29T20:18:40.226Z,100431.25
2023-01-29T20:21:09.494Z,100434.13
2023-01-29T20:23:38.577Z,100426.97
2023-01-29T20:26:07.362Z,100421.63
2023-01-29T20:28:34.995Z,100410.56
2023-01-29T20:31:02.288Z,100418.16
2023-01-29T20:33:29.200Z,100422.47
2023-01-29T20:35:57.749Z,100421.84
2023-01-29T20:38:25.644Z,100411.19
2023-01-29T20:40:52.221Z,100411.81
2023-01-29T20:43:18.790Z,100408.31
2023-01-29T20:45:45.431Z,100403.22
2023-01-29T20:48:12.216Z,100405.47
2023-01-29T20:50:38.830Z,100407.69
2023-01-29T20:53:05.414Z,100408.28
2023-01-29T20:55:32.195Z,100397.03
2023-01-29T20:58:06.432Z,100393.78
2023-01-29T21:00:33.786Z,100396.03
2023-01-29T21:03:00.542Z,100398.06
2023-01-29T21:05:27.093Z,100390.69
2023-01-29T21:07:53.800Z,100383.72
2023-01-29T21:10:20.396Z,100389.47
2023-01-29T21:12:47.028Z,100387.84
2023-01-29T21:15:13.654Z,100384.97
2023-01-29T21:17:40.202Z,100390.28
2023-01-29T21:20:08.353Z,100376.56
2023-01-29T21:22:34.959Z,100380.84
2023-01-29T21:25:01.564Z,100374.31
2023-01-29T21:27:28.133Z,100361.22
2023-01-29T21:29:54.787Z,100362.88
2023-01-29T21:32:21.353Z,100360.81
2023-01-29T21:34:47.885Z,100354.28
2023-01-29T21:37:14.508Z,100357.97
2023-01-29T21:39:41.107Z,100354.28
2023-01-29T21:42:26.036Z,100357.53
2023-01-29T21:44:52.605Z,100364.28
2023-01-29T21:47:19.256Z,100357.75
2023-01-29T21:49:45.864Z,100354.88
2023-01-29T21:52:13.237Z,100355.47
2023-01-29T21:54:40.716Z,100359.97
2023-01-29T21:57:12.505Z,100354.66
2023-01-29T21:59:39.385Z,100353.44
2023-01-29T22:02:06.687Z,100355.06
2023-01-29T22:04:33.401Z,100343.81
2023-01-29T22:06:59.969Z,100342.81
2023-01-29T22:09:26.854Z,100333.38
2023-01-29T22:11:53.589Z,100324.41
2023-01-29T22:14:20.351Z,100327.22
2023-01-29T22:16:46.954Z,100332.56
2023-01-29T22:19:13.852Z,100328.03
2023-01-29T22:21:40.784Z,100327.59
2023-01-29T22:24:08.325Z,100325.34
2023-01-29T22:26:35.850Z,100325.16
2023-01-29T22:29:02.797Z,100334.16
2023-01-29T22:31:29.451Z,100349.72
2023-01-29T22:33:56.375Z,100337.66
2023-01-29T22:36:23.130Z,100323.13
2023-01-29T22:38:49.684Z,100326.41
2023-01-29T22:41:16.320Z,100321.91
2023-01-29T22:43:44.119Z,100330.09
2023-01-29T22:46:11.812Z,100328.25
2023-01-29T22:48:38.465Z,100329.91
2023-01-29T22:51:11.786Z,100338.25
2023-01-29T22:53:52.644Z,100331.28
2023-01-29T22:56:20.907Z,100328.84
2023-01-29T22:58:59.313Z,100319.00
2023-01-29T23:01:29.682Z,100305.25
2023-01-29T23:03:56.793Z,100295.19
2023-01-29T23:06:24.441Z,100297.06
2023-01-29T23:08:51.672Z,100295.63
2023-01-29T23:11:20.711Z,100298.91
2023-01-29T23:13:48.653Z,100300.53
2023-01-29T23:16:16.844Z,100294.44
2023-01-29T23:18:44.798Z,100301.63
2023-01-29T23:21:12.594Z,100302.41
2023-01-29T23:23:40.054Z,100300.97
2023-01-29T23:26:26.501Z,100299.16
2023-01-29T23:28:53.202Z,100304.69
2023-01-29T23:31:19.771Z,100299.78
2023-01-29T23:33:46.398Z,100282.19
2023-01-29T23:36:13.137Z,100287.31
2023-01-29T23:38:39.774Z,100317.81
2023-01-29T23:41:06.407Z,100319.06
2023-01-29T23:43:33.687Z,100304.53
2023-01-29T23:46:00.300Z,100309.84
2023-01-29T23:48:26.872Z,100309.84
2023-01-29T23:50:53.432Z,100315.16
2023-01-29T23:53:20.090Z,100311.47
2023-01-29T23:56:01.930Z,100308.22
2023-01-29T23:58:29.669Z,100319.69
